Time;durP1;ratioP1;P1;durP2;ratioP2;P2;SDS_P1;SDS_P2;PMS_P1;PMS_P2;Temp;Humidity;BMP_temperature;BMP_pressure;BME280_temperature;BME280_humidity;BME280_pressure;Samples;Min_cycle;Max_cycle;Signal;HPM_P1;HPM_P2
2022/08/13 00:04:59;;;;;;;3.35;2.55;;;;;;;;;;10581504;28;20078;-82
2022/08/13 00:10:24;;;;;;;4.03;2.72;;;;;;;;;;10586431;28;20484;-81
2022/08/13 00:15:31;;;;;;;3.58;2.70;;;;;;;;;;10591887;28;20061;-82
2022/08/13 00:20:37;;;;;;;4.80;2.38;;;;;;;;;;10589660;28;20066;-82
2022/08/13 00:25:40;;;;;;;3.60;2.63;;;;;;;;;;10591848;28;20065;-81
2022/08/13 00:30:53;;;;;;;4.72;2.72;;;;;;;;;;10583970;28;20067;-81
2022/08/13 00:35:57;;;;;;;3.45;2.50;;;;;;;;;;10586867;28;20069;-82
2022/08/13 00:41:00;;;;;;;9.55;2.95;;;;;;;;;;10579187;28;20571;-82
2022/08/13 00:46:05;;;;;;;4.70;2.78;;;;;;;;;;10586077;28;20063;-81
2022/08/13 00:51:13;;;;;;;4.05;2.58;;;;;;;;;;10591609;28;20028;-81
2022/08/13 00:56:36;;;;;;;3.70;2.58;;;;;;;;;;10587650;28;20066;-81
2022/08/13 01:01:45;;;;;;;4.85;3.08;;;;;;;;;;10591998;28;20027;-81
2022/08/13 01:06:51;;;;;;;6.15;3.00;;;;;;;;;;10585877;28;20063;-83
2022/08/13 01:11:55;;;;;;;2.90;2.40;;;;;;;;;;10585516;28;20410;-82
2022/08/13 01:17:22;;;;;;;4.30;2.65;;;;;;;;;;10581623;28;20046;-82
2022/08/13 01:22:49;;;;;;;3.72;2.60;;;;;;;;;;10582575;28;20101;-82
2022/08/13 01:27:53;;;;;;;4.93;3.30;;;;;;;;;;10584070;28;20035;-82
2022/08/13 01:33:02;;;;;;;4.18;2.80;;;;;;;;;;10614259;27;20055;-81
2022/08/13 01:38:27;;;;;;;3.67;2.75;;;;;;;;;;10582521;28;20055;-81
2022/08/13 01:43:37;;;;;;;6.05;2.70;;;;;;;;;;10584489;28;20060;-81
2022/08/13 01:54:23;;;;;;;4.57;2.97;;;;;;;;;;10584943;28;20059;-81
2022/08/13 01:59:43;;;;;;;3.65;2.53;;;;;;;;;;10587663;28;20035;-81
2022/08/13 02:05:10;;;;;;;5.32;2.92;;;;;;;;;;10581880;28;20032;-81
2022/08/13 02:10:15;;;;;;;5.85;3.00;;;;;;;;;;10586835;28;20035;-81
2022/08/13 02:15:22;;;;;;;4.10;2.75;;;;;;;;;;10578849;28;20235;-81
2022/08/13 02:20:44;;;;;;;5.72;3.00;;;;;;;;;;10581817;28;20038;-81
2022/08/13 02:25:50;;;;;;;6.55;3.25;;;;;;;;;;10596920;28;20036;-81
2022/08/13 02:31:00;;;;;;;4.00;2.78;;;;;;;;;;10580683;28;20036;-81
2022/08/13 02:36:10;;;;;;;4.25;2.85;;;;;;;;;;10580204;28;20035;-82
2022/08/13 02:46:37;;;;;;;4.55;2.60;;;;;;;;;;10578314;28;20084;-82
2022/08/13 02:51:39;;;;;;;6.45;3.10;;;;;;;;;;10583511;28;20163;-82
2022/08/13 02:57:04;;;;;;;3.78;2.65;;;;;;;;;;10576144;28;20043;-81
2022/08/13 03:02:07;;;;;;;5.90;3.08;;;;;;;;;;10582377;28;20868;-82
2022/08/13 03:07:10;;;;;;;4.32;3.05;;;;;;;;;;10578374;28;20045;-82
2022/08/13 03:12:17;;;;;;;5.70;3.35;;;;;;;;;;10577935;28;20103;-82
2022/08/13 03:17:30;;;;;;;3.78;2.75;;;;;;;;;;10573652;28;20035;-82
2022/08/13 03:22:46;;;;;;;6.15;3.08;;;;;;;;;;10581557;28;20658;-81
2022/08/13 03:27:57;;;;;;;5.45;3.10;;;;;;;;;;10574953;28;20047;-80
2022/08/13 03:33:04;;;;;;;5.50;2.95;;;;;;;;;;10577206;28;20040;-80
2022/08/13 03:38:20;;;;;;;5.55;2.95;;;;;;;;;;10579428;28;20134;-81
2022/08/13 03:43:30;;;;;;;5.82;3.47;;;;;;;;;;10577108;28;20032;-81
2022/08/13 03:48:36;;;;;;;5.57;3.25;;;;;;;;;;10588419;28;20470;-80
2022/08/13 03:53:38;;;;;;;;;;;;;;;;;;10587817;28;20028;-81
2022/08/13 03:58:47;;;;;;;4.47;2.58;;;;;;;;;;10582673;28;19934;-81
2022/08/13 04:03:51;;;;;;;4.65;3.17;;;;;;;;;;10588927;28;20040;-81
2022/08/13 04:08:56;;;;;;;5.73;3.30;;;;;;;;;;10583406;28;20032;-80
2022/08/13 04:14:03;;;;;;;4.72;3.05;;;;;;;;;;10581972;28;20041;-81
2022/08/13 04:19:26;;;;;;;4.07;2.50;;;;;;;;;;10581306;28;20441;-81
2022/08/13 04:24:29;;;;;;;4.05;2.60;;;;;;;;;;10590908;28;20040;-81
2022/08/13 04:29:34;;;;;;;5.18;2.72;;;;;;;;;;10589222;28;20364;-80
2022/08/13 04:34:52;;;;;;;5.50;2.72;;;;;;;;;;10591391;28;20043;-81
2022/08/13 04:40:02;;;;;;;4.95;2.78;;;;;;;;;;10584518;28;20238;-80
2022/08/13 04:45:14;;;;;;;4.47;3.00;;;;;;;;;;10590009;28;20036;-80
2022/08/13 04:50:18;;;;;;;4.00;2.78;;;;;;;;;;10583900;28;20040;-81
2022/08/13 04:55:22;;;;;;;6.03;2.35;;;;;;;;;;10586071;28;20028;-80
2022/08/13 05:00:32;;;;;;;4.18;2.70;;;;;;;;;;10581924;28;20289;-80
2022/08/13 05:05:38;;;;;;;4.13;1.75;;;;;;;;;;10589076;28;20062;-81
2022/08/13 05:10:44;;;;;;;4.72;1.75;;;;;;;;;;10579689;28;20039;-83
2022/08/13 05:15:50;;;;;;;2.83;2.00;;;;;;;;;;10579554;28;20036;-80
2022/08/13 05:21:03;;;;;;;4.93;2.60;;;;;;;;;;10581983;28;20085;-81
2022/08/13 05:26:08;;;;;;;5.95;2.50;;;;;;;;;;10593165;28;20040;-81
2022/08/13 05:31:35;;;;;;;2.70;1.55;;;;;;;;;;10592603;28;20040;-81
2022/08/13 05:36:58;;;;;;;4.70;2.55;;;;;;;;;;10586480;28;20195;-81
2022/08/13 05:42:20;;;;;;;4.40;2.60;;;;;;;;;;10615037;27;20073;-81
2022/08/13 05:47:30;;;;;;;4.20;2.90;;;;;;;;;;10583062;28;20123;-82
2022/08/13 05:52:40;;;;;;;1.35;1.08;;;;;;;;;;10606886;27;20115;-81
2022/08/13 05:57:50;;;;;;;3.90;2.92;;;;;;;;;;10585382;28;20044;-81
2022/08/13 06:08:18;;;;;;;4.85;2.15;;;;;;;;;;10582351;28;20042;-81
2022/08/13 06:13:41;;;;;;;7.00;2.53;;;;;;;;;;10584329;28;20210;-81
2022/08/13 06:19:06;;;;;;;3.65;2.53;;;;;;;;;;10579751;28;20130;-81
2022/08/13 06:24:12;;;;;;;5.28;2.45;;;;;;;;;;10579143;28;20032;-82
2022/08/13 06:29:16;;;;;;;3.15;2.30;;;;;;;;;;10581390;28;20043;-82
2022/08/13 06:34:20;;;;;;;4.75;2.20;;;;;;;;;;10581443;28;20048;-81
2022/08/13 06:39:39;;;;;;;3.25;2.20;;;;;;;;;;10587670;28;20039;-81
2022/08/13 06:44:44;;;;;;;3.88;2.22;;;;;;;;;;10582902;28;20039;-82
2022/08/13 06:49:50;;;;;;;4.53;2.20;;;;;;;;;;10578416;28;20388;-81
2022/08/13 06:55:03;;;;;;;3.38;2.28;;;;;;;;;;10582692;28;20040;-82
2022/08/13 07:00:26;;;;;;;;;;;;;;;;;;10582486;28;20032;-81
2022/08/13 07:05:38;;;;;;;2.35;1.65;;;;;;;;;;10580075;28;20002;-82
2022/08/13 07:10:44;;;;;;;2.55;2.03;;;;;;;;;;10578863;28;20027;-80
2022/08/13 07:15:49;;;;;;;4.32;2.25;;;;;;;;;;10581657;28;20070;-82
2022/08/13 07:20:55;;;;;;;3.70;2.17;;;;;;;;;;10578164;28;20131;-82
2022/08/13 07:25:58;;;;;;;2.78;2.10;;;;;;;;;;10583462;28;20061;-81
2022/08/13 07:31:04;;;;;;;2.63;2.20;;;;;;;;;;10577021;28;20165;-81
2022/08/13 07:36:16;;;;;;;3.35;2.20;;;;;;;;;;10585914;28;20040;-81
2022/08/13 07:41:21;;;;;;;3.28;2.50;;;;;;;;;;10574709;28;20039;-82
2022/08/13 07:46:24;;;;;;;2.50;2.28;;;;;;;;;;10582770;28;20131;-82
2022/08/13 07:51:33;;;;;;;3.47;2.20;;;;;;;;;;10576156;28;20134;-81
2022/08/13 07:56:40;;;;;;;2.72;2.30;;;;;;;;;;10580293;28;20028;-79
2022/08/13 08:01:52;;;;;;;2.15;2.03;;;;;;;;;;10586071;28;20047;-81
2022/08/13 08:07:16;;;;;;;3.33;2.03;;;;;;;;;;10585385;28;20047;-82
2022/08/13 08:12:32;;;;;;;7.60;2.20;;;;;;;;;;10580111;28;20039;-82
2022/08/13 08:17:36;;;;;;;3.60;2.20;;;;;;;;;;10580238;28;20028;-82
2022/08/13 08:23:01;;;;;;;7.10;2.45;;;;;;;;;;10581856;28;20422;-83
2022/08/13 08:28:07;;;;;;;4.75;2.45;;;;;;;;;;10583495;28;20401;-83
2022/08/13 08:33:30;;;;;;;5.15;2.33;;;;;;;;;;10575552;28;20044;-83
2022/08/13 08:44:17;;;;;;;3.88;2.03;;;;;;;;;;10586244;28;20379;-83
2022/08/13 08:49:21;;;;;;;4.18;2.53;;;;;;;;;;10584760;28;20044;-84
2022/08/13 08:54:39;;;;;;;2.78;2.58;;;;;;;;;;10586421;28;20028;-84
2022/08/13 08:59:46;;;;;;;4.13;2.42;;;;;;;;;;10584738;28;20036;-83
2022/08/13 09:04:56;;;;;;;4.50;2.80;;;;;;;;;;10585317;28;20116;-84
2022/08/13 09:10:04;;;;;;;3.10;2.80;;;;;;;;;;10584386;28;20044;-83
2022/08/13 09:15:07;;;;;;;4.45;2.80;;;;;;;;;;10585493;28;20040;-84
2022/08/13 09:20:15;;;;;;;3.20;2.90;;;;;;;;;;10584177;28;20109;-83
2022/08/13 09:25:20;;;;;;;;;;;;;;;;;;10591214;28;20047;-83
2022/08/13 09:30:24;;;;;;;2.90;2.60;;;;;;;;;;10589066;28;19966;-83
2022/08/13 09:35:29;;;;;;;3.42;3.13;;;;;;;;;;10581387;28;20066;-84
2022/08/13 09:40:41;;;;;;;2.95;2.75;;;;;;;;;;10586485;28;20035;-85
2022/08/13 09:46:04;;;;;;;3.67;3.30;;;;;;;;;;10581459;28;20310;-84
2022/08/13 09:51:09;;;;;;;3.13;2.90;;;;;;;;;;10582883;28;20093;-84
2022/08/13 09:56:36;;;;;;;4.00;3.40;;;;;;;;;;10583749;28;20138;-84
2022/08/13 10:01:41;;;;;;;3.80;3.20;;;;;;;;;;10584538;28;20039;-84
2022/08/13 10:06:59;;;;;;;3.05;2.78;;;;;;;;;;10584962;28;20035;-83
2022/08/13 10:12:08;;;;;;;3.88;3.35;;;;;;;;;;10586566;28;20054;-84
2022/08/13 10:17:24;;;;;;;3.63;3.20;;;;;;;;;;10582348;28;20176;-84
2022/08/13 10:22:47;;;;;;;3.50;3.20;;;;;;;;;;10587093;28;20046;-84
2022/08/13 10:27:51;;;;;;;3.05;2.75;;;;;;;;;;10588275;28;20092;-84
2022/08/13 10:32:56;;;;;;;3.40;2.80;;;;;;;;;;10581593;28;20035;-84
2022/08/13 10:38:07;;;;;;;5.25;3.30;;;;;;;;;;10587344;28;20031;-84
2022/08/13 10:43:10;;;;;;;3.50;3.10;;;;;;;;;;10581461;28;20093;-85
2022/08/13 10:48:28;;;;;;;3.97;3.30;;;;;;;;;;10584135;28;20040;-84
2022/08/13 10:58:56;;;;;;;5.55;2.60;;;;;;;;;;10581312;28;20038;-84
2022/08/13 11:04:02;;;;;;;2.95;2.47;;;;;;;;;;10583319;28;20085;-84
2022/08/13 11:09:10;;;;;;;3.20;2.90;;;;;;;;;;10577350;28;20038;-83
2022/08/13 11:14:29;;;;;;;4.13;2.50;;;;;;;;;;10577425;28;20052;-84
2022/08/13 11:19:45;;;;;;;4.55;2.90;;;;;;;;;;10584437;28;20039;-85
2022/08/13 11:24:59;;;;;;;3.55;2.40;;;;;;;;;;10585804;28;20055;-84
2022/08/13 11:30:22;;;;;;;3.75;2.50;;;;;;;;;;10574550;28;20062;-84
2022/08/13 11:35:39;;;;;;;2.60;2.40;;;;;;;;;;10580492;28;20036;-84
2022/08/13 11:40:51;;;;;;;3.30;2.60;;;;;;;;;;10582401;28;20155;-84
2022/08/13 11:45:56;;;;;;;4.40;2.50;;;;;;;;;;10580511;28;20113;-84
2022/08/13 11:51:00;;;;;;;3.72;2.55;;;;;;;;;;10578920;28;20086;-85
2022/08/13 11:56:06;;;;;;;2.72;2.53;;;;;;;;;;10579290;28;20413;-84
2022/08/13 12:01:10;;;;;;;2.72;2.20;;;;;;;;;;10573230;28;20623;-84
2022/08/13 12:06:15;;;;;;;5.78;2.65;;;;;;;;;;10581073;28;20042;-84
2022/08/13 12:11:27;;;;;;;3.90;2.45;;;;;;;;;;10587883;28;20044;-84
2022/08/13 12:16:49;;;;;;;2.50;2.30;;;;;;;;;;10587806;28;20110;-84
2022/08/13 12:21:53;;;;;;;7.07;2.50;;;;;;;;;;10586314;28;20436;-85
2022/08/13 12:26:58;;;;;;;2.38;1.98;;;;;;;;;;10584496;28;20043;-85
2022/08/13 12:32:05;;;;;;;5.03;2.40;;;;;;;;;;10588249;28;20051;-82
2022/08/13 12:37:17;;;;;;;3.70;2.33;;;;;;;;;;10598025;27;20066;-82
2022/08/13 12:42:26;;;;;;;3.45;2.20;;;;;;;;;;10589905;28;20079;-83
2022/08/13 12:47:30;;;;;;;5.70;2.60;;;;;;;;;;10587076;28;20039;-83
2022/08/13 12:52:53;;;;;;;2.40;2.20;;;;;;;;;;10587374;28;20047;-83
2022/08/13 12:57:58;;;;;;;2.72;2.05;;;;;;;;;;10582609;28;20050;-83
2022/08/13 13:03:07;;;;;;;2.65;2.13;;;;;;;;;;10586507;28;20417;-83
2022/08/13 13:08:17;;;;;;;2.83;2.10;;;;;;;;;;10581592;28;20085;-83
2022/08/13 13:13:35;;;;;;;2.92;2.10;;;;;;;;;;10582713;28;20104;-83
2022/08/13 13:19:00;;;;;;;2.85;2.40;;;;;;;;;;10583493;28;20050;-83
2022/08/13 13:24:06;;;;;;;2.55;2.10;;;;;;;;;;10588678;28;20131;-82
2022/08/13 13:29:22;;;;;;;3.80;2.50;;;;;;;;;;10582904;28;20060;-84
2022/08/13 13:34:25;;;;;;;2.63;2.42;;;;;;;;;;10587017;28;20046;-82
2022/08/13 13:39:32;;;;;;;2.47;2.17;;;;;;;;;;10580068;28;20060;-82
2022/08/13 13:44:46;;;;;;;4.35;2.67;;;;;;;;;;10605232;27;20047;-82
2022/08/13 13:49:50;;;;;;;2.40;2.20;;;;;;;;;;10584709;28;20051;-83
2022/08/13 13:54:54;;;;;;;2.70;2.45;;;;;;;;;;10578335;28;20058;-83
2022/08/13 14:00:00;;;;;;;4.38;2.72;;;;;;;;;;10579106;28;20045;-83
2022/08/13 14:05:06;;;;;;;2.90;2.40;;;;;;;;;;10584067;28;20157;-82
2022/08/13 14:10:32;;;;;;;4.93;2.38;;;;;;;;;;10580173;28;20044;-83
2022/08/13 14:15:38;;;;;;;4.10;2.30;;;;;;;;;;10579899;28;20089;-83
2022/08/13 14:20:43;;;;;;;2.97;2.10;;;;;;;;;;10580555;28;20067;-82
2022/08/13 14:25:48;;;;;;;2.33;2.10;;;;;;;;;;10588206;28;20049;-82
2022/08/13 14:30:58;;;;;;;3.03;1.92;;;;;;;;;;10581865;28;20424;-83
2022/08/13 14:36:02;;;;;;;3.38;2.20;;;;;;;;;;10581598;28;20085;-83
2022/08/13 14:41:10;;;;;;;3.15;2.30;;;;;;;;;;10583428;28;20065;-82
2022/08/13 14:46:19;;;;;;;4.25;2.10;;;;;;;;;;10577804;28;20042;-81
2022/08/13 14:51:27;;;;;;;2.15;1.55;;;;;;;;;;10583002;28;20035;-81
2022/08/13 14:56:31;;;;;;;1.50;1.40;;;;;;;;;;10583421;28;20035;-82
2022/08/13 15:01:35;;;;;;;2.25;1.90;;;;;;;;;;10579590;28;20048;-81
2022/08/13 15:06:44;;;;;;;2.67;2.00;;;;;;;;;;10583939;28;20107;-81
2022/08/13 15:11:50;;;;;;;2.75;1.90;;;;;;;;;;10581660;28;20052;-81
2022/08/13 15:17:03;;;;;;;3.45;1.50;;;;;;;;;;10583699;28;20043;-81
2022/08/13 15:22:06;;;;;;;2.67;2.17;;;;;;;;;;10589468;28;20038;-82
2022/08/13 15:27:24;;;;;;;4.63;2.20;;;;;;;;;;10586515;28;20028;-82
2022/08/13 15:32:28;;;;;;;3.05;2.03;;;;;;;;;;10584201;28;20626;-83
2022/08/13 15:37:36;;;;;;;3.05;2.20;;;;;;;;;;10583706;28;20212;-82
2022/08/13 15:43:04;;;;;;;2.13;1.73;;;;;;;;;;10581355;28;20036;-83
2022/08/13 15:48:11;;;;;;;3.50;1.90;;;;;;;;;;10586089;28;20040;-82
2022/08/13 15:53:23;;;;;;;4.72;2.05;;;;;;;;;;10589853;28;20067;-82
2022/08/13 15:58:27;;;;;;;4.38;1.98;;;;;;;;;;10588601;28;20043;-82
2022/08/13 16:03:36;;;;;;;5.82;2.28;;;;;;;;;;10592260;28;20346;-82
2022/08/13 16:08:42;;;;;;;2.95;2.10;;;;;;;;;;10589358;28;20115;-82
2022/08/13 16:13:58;;;;;;;2.83;2.05;;;;;;;;;;10585684;28;20106;-82
2022/08/13 16:19:01;;;;;;;2.95;1.95;;;;;;;;;;10590161;28;20032;-82
2022/08/13 16:24:08;;;;;;;2.58;1.92;;;;;;;;;;10591546;28;20257;-84
2022/08/13 16:29:14;;;;;;;4.35;1.80;;;;;;;;;;10591980;28;20103;-83
2022/08/13 16:34:19;;;;;;;2.88;2.00;;;;;;;;;;10588437;28;20056;-83
2022/08/13 16:39:23;;;;;;;3.88;2.40;;;;;;;;;;10588414;28;20043;-84
2022/08/13 16:44:30;;;;;;;3.15;1.90;;;;;;;;;;10593464;28;20150;-83
2022/08/13 16:49:42;;;;;;;2.35;1.83;;;;;;;;;;10583472;28;20036;-83
2022/08/13 16:54:52;;;;;;;7.53;2.00;;;;;;;;;;10587048;28;20163;-82
2022/08/13 16:59:59;;;;;;;4.07;2.17;;;;;;;;;;10585037;28;20061;-83
2022/08/13 17:10:31;;;;;;;2.80;1.80;;;;;;;;;;10586223;28;20083;-83
2022/08/13 17:15:41;;;;;;;3.15;1.88;;;;;;;;;;10585174;28;20131;-83
2022/08/13 17:20:45;;;;;;;2.55;1.85;;;;;;;;;;10583714;28;20066;-84
2022/08/13 17:25:53;;;;;;;3.00;2.00;;;;;;;;;;10585798;28;20139;-81
2022/08/13 17:31:00;;;;;;;4.82;2.10;;;;;;;;;;10581536;28;20035;-84
2022/08/13 17:36:07;;;;;;;3.15;2.20;;;;;;;;;;10581428;28;20051;-82
2022/08/13 17:41:14;;;;;;;3.08;2.00;;;;;;;;;;10586400;28;20069;-82
2022/08/13 17:46:21;;;;;;;2.95;1.92;;;;;;;;;;10583175;28;20058;-82
2022/08/13 17:51:31;;;;;;;5.18;2.30;;;;;;;;;;10587651;28;20553;-83
2022/08/13 17:56:34;;;;;;;2.65;2.00;;;;;;;;;;10585870;28;20145;-83
2022/08/13 18:01:43;;;;;;;2.83;2.35;;;;;;;;;;10586177;28;20160;-83
2022/08/13 18:06:48;;;;;;;5.53;2.30;;;;;;;;;;10581707;28;20065;-82
2022/08/13 18:11:55;;;;;;;4.50;2.40;;;;;;;;;;10584825;28;20350;-82
2022/08/13 18:17:02;;;;;;;4.60;2.55;;;;;;;;;;10577735;28;20061;-83
2022/08/13 18:22:27;;;;;;;5.70;2.42;;;;;;;;;;10583870;28;20377;-82
2022/08/13 18:27:32;;;;;;;5.47;2.67;;;;;;;;;;10590467;28;20448;-81
2022/08/13 18:32:58;;;;;;;7.25;2.83;;;;;;;;;;10586340;28;20044;-83
2022/08/13 18:38:03;;;;;;;6.30;3.08;;;;;;;;;;10583004;28;20059;-83
2022/08/13 18:43:18;;;;;;;4.25;2.90;;;;;;;;;;10588780;28;20028;-82
2022/08/13 18:48:26;;;;;;;8.85;3.50;;;;;;;;;;10584127;28;20032;-82
2022/08/13 18:53:36;;;;;;;11.23;4.97;;;;;;;;;;10582955;28;20051;-82
2022/08/13 18:58:46;;;;;;;9.82;5.80;;;;;;;;;;10581296;28;20039;-83
2022/08/13 19:03:57;;;;;;;14.13;6.70;;;;;;;;;;10580561;28;20138;-82
2022/08/13 19:09:04;;;;;;;16.83;6.75;;;;;;;;;;10584120;28;20046;-82
2022/08/13 19:14:09;;;;;;;8.50;4.05;;;;;;;;;;10576708;28;20047;-83
2022/08/13 19:19:15;;;;;;;10.30;3.95;;;;;;;;;;10588073;28;20043;-83
2022/08/13 19:24:19;;;;;;;41.03;22.02;;;;;;;;;;10582074;28;20040;-82
2022/08/13 19:29:33;;;;;;;27.27;13.88;;;;;;;;;;10585147;28;20062;-83
2022/08/13 19:34:37;;;;;;;11.70;6.40;;;;;;;;;;10583804;28;20112;-81
2022/08/13 19:39:44;;;;;;;11.70;5.60;;;;;;;;;;10583741;28;20032;-83
2022/08/13 19:45:09;;;;;;;11.43;5.25;;;;;;;;;;10577513;28;20059;-83
2022/08/13 19:50:21;;;;;;;10.93;6.03;;;;;;;;;;10576318;28;20032;-82
2022/08/13 19:55:29;;;;;;;11.38;5.15;;;;;;;;;;10577670;28;20037;-83
2022/08/13 20:00:52;;;;;;;11.57;5.50;;;;;;;;;;10583893;28;20039;-83
2022/08/13 20:05:57;;;;;;;10.30;5.47;;;;;;;;;;10581896;28;20524;-83
2022/08/13 20:11:01;;;;;;;10.60;5.57;;;;;;;;;;10574188;28;20119;-82
2022/08/13 20:16:05;;;;;;;15.75;8.38;;;;;;;;;;10584399;28;20036;-82
2022/08/13 20:21:09;;;;;;;14.73;6.78;;;;;;;;;;10581106;28;20040;-82
2022/08/13 20:26:12;;;;;;;8.70;4.97;;;;;;;;;;10577825;28;20047;-80
2022/08/13 20:31:23;;;;;;;9.20;5.45;;;;;;;;;;10588002;28;20064;-82
2022/08/13 20:36:50;;;;;;;15.00;7.63;;;;;;;;;;10584974;28;20101;-82
2022/08/13 20:42:02;;;;;;;10.85;5.43;;;;;;;;;;10601141;27;20051;-81
2022/08/13 20:47:09;;;;;;;15.52;5.97;;;;;;;;;;10590631;28;20061;-81
2022/08/13 20:52:26;;;;;;;13.25;5.53;;;;;;;;;;10587915;28;20039;-81
2022/08/13 20:57:38;;;;;;;11.55;5.28;;;;;;;;;;10594239;28;20043;-81
2022/08/13 21:02:55;;;;;;;11.13;5.07;;;;;;;;;;10581681;28;20070;-81
2022/08/13 21:08:10;;;;;;;10.88;4.97;;;;;;;;;;10570599;28;20065;-81
2022/08/13 21:13:23;;;;;;;9.13;4.65;;;;;;;;;;10580801;28;20055;-81
2022/08/13 21:18:44;;;;;;;8.63;4.63;;;;;;;;;;10588738;28;20046;-82
2022/08/13 21:23:56;;;;;;;7.70;4.53;;;;;;;;;;10582884;28;20046;-81
2022/08/13 21:29:09;;;;;;;8.65;4.85;;;;;;;;;;10580965;28;20036;-81
2022/08/13 21:34:34;;;;;;;7.10;4.28;;;;;;;;;;10587991;28;20524;-81
2022/08/13 21:39:41;;;;;;;12.20;6.00;;;;;;;;;;10590471;28;20035;-81
2022/08/13 21:44:50;;;;;;;10.68;5.70;;;;;;;;;;10583856;28;20060;-82
2022/08/13 21:50:03;;;;;;;7.45;4.10;;;;;;;;;;10587454;28;20064;-81
2022/08/13 21:55:19;;;;;;;7.70;3.80;;;;;;;;;;10613309;27;20394;-82
2022/08/13 22:00:34;;;;;;;14.20;6.45;;;;;;;;;;10586392;28;20070;-82
2022/08/13 22:05:55;;;;;;;6.13;3.83;;;;;;;;;;10585156;28;20507;-83
2022/08/13 22:11:07;;;;;;;;;;;;;;;;;;10586712;28;20503;-80
2022/08/13 22:16:14;;;;;;;8.80;3.95;;;;;;;;;;10583486;28;19986;-82
2022/08/13 22:21:22;;;;;;;8.05;4.03;;;;;;;;;;10579646;28;20475;-81
2022/08/13 22:26:27;;;;;;;5.78;3.83;;;;;;;;;;10570280;28;20490;-81
2022/08/13 22:31:34;;;;;;;7.55;3.83;;;;;;;;;;10582882;28;20028;-81
2022/08/13 22:36:47;;;;;;;11.00;3.95;;;;;;;;;;10587426;28;20044;-81
2022/08/13 22:41:56;;;;;;;8.63;3.95;;;;;;;;;;10577737;28;20531;-81
2022/08/13 22:47:03;;;;;;;7.68;4.25;;;;;;;;;;10584565;28;20048;-81
2022/08/13 22:52:11;;;;;;;11.00;5.90;;;;;;;;;;10580556;28;20071;-81
2022/08/13 22:57:21;;;;;;;10.13;4.53;;;;;;;;;;10580764;28;20048;-81
2022/08/13 23:02:29;;;;;;;13.85;6.55;;;;;;;;;;10579039;28;20035;-81
2022/08/13 23:07:43;;;;;;;21.83;10.98;;;;;;;;;;10578403;28;20100;-82
2022/08/13 23:12:53;;;;;;;7.38;4.63;;;;;;;;;;10581410;28;20168;-82
2022/08/13 23:18:05;;;;;;;6.18;4.07;;;;;;;;;;10570896;28;20044;-82
2022/08/13 23:23:17;;;;;;;7.13;4.00;;;;;;;;;;10579144;28;20186;-82
2022/08/13 23:28:33;;;;;;;8.82;4.45;;;;;;;;;;10564648;28;20063;-82
2022/08/13 23:33:53;;;;;;;9.82;3.85;;;;;;;;;;10579083;28;20052;-82
2022/08/13 23:39:01;;;;;;;8.07;4.68;;;;;;;;;;10579194;28;20043;-83
2022/08/13 23:44:07;;;;;;;8.20;4.65;;;;;;;;;;10578146;28;20043;-82
2022/08/13 23:49:21;;;;;;;;;;;;;;;;;;10585964;28;20039;-81
2022/08/13 23:54:29;;;;;;;9.02;4.28;;;;;;;;;;10596326;27;19955;-81
2022/08/13 23:59:37;;;;;;;7.60;4.40;;;;;;;;;;10582996;28;20024;-81
